Terminal Aerodrome Forecast
Issued by NWS Houston/Galveston, TX

Home | Current Version | Previous Version | Text Only | Print | Product List | Glossary On
Versions: 1 2 3 4 5 6 7 8 9 10 11 12 13 14 15 16 17 18 19 20 21 22 23
000
FTUS44 KHGX 251720
TAFCLL
TAF
KCLL 251720Z 2518/2618 16009KT P6SM VCTS FEW025 SCT040CB BKN170
      TEMPO 2518/2522 VRB15KT 4SM TSRA BKN035CB
     FM260200 VRB03KT P6SM BKN200
     FM261000 01006KT P6SM VCSH SCT009 BKN170
      TEMPO 2610/2614 4SM BR
     FM261400 01007KT 6SM BR BKN015
     FM261700 01009KT P6SM SCT020 BKN170=

USA.gov is the U.S. government's official web portal to all federal, state and local government web resources and services.